createdAt,value
2023-03-05T00:01:30.354Z,11.50
2023-03-05T00:03:57.999Z,14.30
2023-03-05T00:06:29.383Z,10.50
2023-03-05T00:08:58.563Z,10.30
2023-03-05T00:11:33.469Z,10.90
2023-03-05T00:14:04.130Z,12.00
2023-03-05T00:16:32.439Z,9.60
2023-03-05T00:19:01.656Z,9.50
2023-03-05T00:21:33.149Z,11.80
2023-03-05T00:26:38.828Z,9.40
2023-03-05T00:29:08.705Z,10.60
2023-03-05T00:31:37.331Z,12.10
2023-03-05T00:34:09.892Z,11.30
2023-03-05T00:36:42.544Z,9.60
2023-03-05T00:39:11.848Z,10.80
2023-03-05T00:41:40.377Z,9.70
2023-03-05T00:44:07.900Z,14.10
2023-03-05T00:46:35.803Z,9.50
2023-03-05T00:49:03.821Z,13.20
2023-03-05T00:51:31.446Z,15.30
2023-03-05T00:53:58.917Z,13.30
2023-03-05T00:56:26.708Z,15.60
2023-03-05T00:58:54.009Z,11.50
2023-03-05T01:01:21.740Z,11.40
2023-03-05T01:03:49.184Z,12.50
2023-03-05T01:06:17.317Z,10.20
2023-03-05T01:08:45.539Z,10.70
2023-03-05T01:11:13.502Z,8.50
2023-03-05T01:13:41.432Z,12.00
2023-03-05T01:16:09.287Z,12.00
2023-03-05T01:18:38.967Z,10.20
2023-03-05T01:21:06.663Z,11.80
2023-03-05T01:23:35.756Z,9.30
2023-03-05T01:26:04.321Z,10.30
2023-03-05T01:28:32.715Z,9.60
2023-03-05T01:31:00.189Z,9.80
2023-03-05T01:33:27.596Z,11.20
2023-03-05T01:35:54.974Z,11.00
2023-03-05T01:38:22.370Z,13.30
2023-03-05T01:40:49.913Z,10.20
2023-03-05T01:43:29.882Z,10.80
2023-03-05T01:46:23.713Z,10.90
2023-03-05T01:49:24.131Z,10.30
2023-03-05T01:52:03.381Z,11.80
2023-03-05T01:54:40.678Z,14.40
2023-03-05T01:57:14.006Z,15.20
2023-03-05T01:59:43.541Z,12.40
2023-03-05T02:02:11.327Z,12.40
2023-03-05T02:05:09.180Z,13.30
2023-03-05T02:07:38.053Z,11.80
2023-03-05T02:10:26.859Z,11.30
2023-03-05T02:12:58.272Z,12.70
2023-03-05T02:17:53.042Z,11.90
2023-03-05T02:20:27.387Z,14.00
2023-03-05T02:22:55.356Z,15.30
2023-03-05T02:25:27.900Z,15.00
2023-03-05T02:28:28.581Z,17.00
2023-03-05T02:30:56.376Z,14.00
2023-03-05T02:33:23.880Z,14.30
2023-03-05T02:35:51.435Z,16.00
2023-03-05T02:38:21.201Z,16.70
2023-03-05T02:40:48.631Z,17.40
2023-03-05T02:43:15.984Z,15.30
2023-03-05T02:45:43.474Z,18.40
2023-03-05T02:48:11.000Z,15.90
2023-03-05T02:50:39.885Z,16.80
2023-03-05T02:53:07.431Z,17.10
2023-03-05T02:55:34.994Z,16.10
2023-03-05T02:58:02.684Z,18.20
2023-03-05T03:00:30.621Z,15.70
2023-03-05T03:02:58.505Z,16.70
2023-03-05T03:05:25.932Z,15.30
2023-03-05T03:07:53.350Z,15.90
2023-03-05T03:10:20.871Z,15.40
2023-03-05T03:12:48.543Z,18.10
2023-03-05T03:15:16.950Z,20.30
2023-03-05T03:17:45.282Z,15.70
2023-03-05T03:20:16.611Z,15.70
2023-03-05T03:22:46.753Z,14.00
2023-03-05T03:25:18.058Z,17.00
2023-03-05T03:27:45.647Z,15.40
2023-03-05T03:30:14.091Z,14.50
2023-03-05T03:32:41.895Z,17.50
2023-03-05T03:35:10.807Z,16.00
2023-03-05T03:37:38.497Z,14.30
2023-03-05T03:40:07.293Z,16.60
2023-03-05T03:42:35.402Z,15.80
2023-03-05T03:45:04.089Z,13.80
2023-03-05T03:47:31.552Z,14.20
2023-03-05T03:49:59.164Z,14.70
2023-03-05T03:52:27.549Z,14.90
2023-03-05T03:55:01.310Z,15.00
2023-03-05T03:57:33.527Z,15.80
2023-03-05T04:00:01.216Z,13.60
2023-03-05T04:02:28.691Z,16.70
2023-03-05T04:04:56.117Z,16.60
2023-03-05T04:07:23.706Z,14.70
2023-03-05T04:09:51.501Z,14.40
2023-03-05T04:12:19.073Z,13.80
2023-03-05T04:14:48.452Z,15.40
2023-03-05T04:17:16.887Z,14.60
2023-03-05T04:19:44.346Z,14.60
2023-03-05T04:22:16.981Z,15.60
2023-03-05T04:24:44.754Z,14.50
2023-03-05T04:27:12.844Z,16.10
2023-03-05T04:29:40.281Z,15.00
2023-03-05T04:32:08.255Z,14.30
2023-03-05T04:34:38.152Z,16.50
2023-03-05T04:37:06.009Z,15.50
2023-03-05T04:39:33.393Z,14.60
2023-03-05T04:42:00.796Z,14.40
2023-03-05T04:44:28.406Z,15.10
2023-03-05T04:46:55.921Z,15.00
2023-03-05T04:49:23.300Z,12.10
2023-03-05T04:51:50.794Z,13.70
2023-03-05T04:54:18.261Z,15.60
2023-03-05T04:56:45.665Z,14.60
2023-03-05T04:59:13.402Z,16.80
2023-03-05T05:01:40.859Z,14.50
2023-03-05T05:04:08.510Z,17.30
2023-03-05T05:06:36.112Z,14.30
2023-03-05T05:09:03.900Z,15.50
2023-03-05T05:11:31.315Z,13.40
2023-03-05T05:13:58.779Z,15.30
2023-03-05T05:16:26.265Z,14.30
2023-03-05T05:18:53.679Z,15.00
2023-03-05T05:21:21.191Z,14.90
2023-03-05T05:23:48.666Z,15.90
2023-03-05T05:26:16.203Z,13.80
2023-03-05T05:28:44.223Z,15.10
2023-03-05T05:31:14.739Z,14.30
2023-03-05T05:33:43.099Z,13.80
2023-03-05T05:36:15.454Z,14.20
2023-03-05T05:38:42.863Z,15.50
2023-03-05T05:41:14.993Z,13.90
2023-03-05T05:43:42.990Z,16.30
2023-03-05T05:46:17.850Z,14.70
2023-03-05T05:48:46.137Z,14.90
2023-03-05T05:51:17.914Z,13.60
2023-03-05T05:53:45.663Z,13.20
2023-03-05T05:56:14.396Z,13.90
2023-03-05T05:58:42.978Z,12.60
2023-03-05T06:01:26.501Z,14.30
2023-03-05T06:03:54.603Z,15.90
2023-03-05T06:06:24.543Z,12.50
2023-03-05T06:08:52.990Z,12.40
2023-03-05T06:11:21.620Z,13.70
2023-03-05T06:13:49.187Z,13.70
2023-03-05T06:16:20.634Z,14.70
2023-03-05T06:21:17.643Z,15.40
2023-03-05T06:23:47.657Z,15.60
2023-03-05T06:26:19.379Z,12.60
2023-03-05T06:28:46.894Z,14.60
2023-03-05T06:31:27.418Z,13.60
2023-03-05T06:34:01.187Z,16.00
2023-03-05T06:36:29.378Z,13.70
2023-03-05T06:38:57.461Z,11.70
2023-03-05T06:41:29.055Z,11.60
2023-03-05T06:43:57.478Z,12.40
2023-03-05T06:46:28.333Z,12.10
2023-03-05T06:48:59.277Z,10.70
2023-03-05T06:51:34.204Z,11.20
2023-03-05T06:54:05.771Z,12.10
2023-03-05T06:56:36.325Z,16.60
2023-03-05T06:59:04.125Z,13.20
2023-03-05T07:01:31.780Z,13.30
2023-03-05T07:04:00.436Z,12.70
2023-03-05T07:06:27.947Z,12.90
2023-03-05T07:08:56.952Z,14.10
2023-03-05T07:11:25.484Z,15.30
2023-03-05T07:13:52.877Z,13.60
2023-03-05T07:16:32.031Z,12.60
2023-03-05T07:19:02.928Z,14.10
2023-03-05T07:21:33.599Z,13.30
2023-03-05T07:24:03.384Z,14.60
2023-03-05T07:26:33.562Z,12.50
2023-03-05T07:29:01.987Z,12.80
2023-03-05T07:31:31.901Z,13.70
2023-03-05T07:34:02.576Z,14.60
2023-03-05T07:36:31.154Z,13.60
2023-03-05T07:38:58.539Z,16.30
2023-03-05T07:41:25.938Z,13.50
2023-03-05T07:43:54.837Z,13.80
2023-03-05T07:46:27.068Z,14.00
2023-03-05T07:48:55.325Z,16.40
2023-03-05T07:51:24.625Z,16.20
2023-03-05T07:53:54.087Z,15.60
2023-03-05T07:56:32.080Z,15.50
2023-03-05T07:59:01.373Z,14.10
2023-03-05T08:01:30.786Z,14.40
2023-03-05T08:03:58.350Z,13.10
2023-03-05T08:06:26.074Z,14.50
2023-03-05T08:08:53.530Z,16.90
2023-03-05T08:11:21.518Z,13.60
2023-03-05T08:13:49.261Z,13.20
2023-03-05T08:16:20.669Z,15.50
2023-03-05T08:21:33.960Z,14.00
2023-03-05T08:24:09.134Z,13.50
2023-03-05T08:26:38.604Z,13.60
2023-03-05T08:29:10.380Z,14.10
2023-03-05T08:31:38.829Z,14.30
2023-03-05T08:34:06.977Z,16.00
2023-03-05T08:36:34.470Z,14.40
2023-03-05T08:39:02.225Z,14.60
2023-03-05T08:41:29.622Z,16.50
2023-03-05T08:43:57.067Z,14.20
2023-03-05T08:46:25.159Z,15.70
2023-03-05T08:48:52.764Z,16.80
2023-03-05T08:51:27.071Z,15.90
2023-03-05T08:53:56.487Z,14.70
2023-03-05T08:56:23.919Z,14.80
2023-03-05T08:58:52.490Z,12.80
2023-03-05T09:01:20.023Z,14.00
2023-03-05T09:03:47.469Z,18.10
2023-03-05T09:06:15.047Z,15.60
2023-03-05T09:08:42.841Z,15.10
2023-03-05T09:11:13.401Z,16.70
2023-03-05T09:13:40.883Z,14.40
2023-03-05T09:16:14.978Z,16.70
2023-03-05T09:18:43.157Z,16.60
2023-03-05T09:21:16.792Z,15.70
2023-03-05T09:23:45.049Z,15.50
2023-03-05T09:26:15.605Z,16.60
2023-03-05T09:28:42.941Z,13.70
2023-03-05T09:31:10.654Z,13.90
2023-03-05T09:33:39.033Z,14.60
2023-03-05T09:36:28.521Z,17.10
2023-03-05T09:38:56.680Z,14.50
2023-03-05T09:41:44.971Z,13.70
2023-03-05T09:44:41.598Z,12.20
2023-03-05T09:47:39.224Z,12.90
2023-03-05T09:50:44.876Z,13.90
2023-03-05T09:53:44.473Z,13.40
2023-03-05T09:56:21.460Z,11.70
2023-03-05T09:58:54.116Z,11.30
2023-03-05T10:01:42.347Z,10.30
2023-03-05T10:04:16.748Z,11.50
2023-03-05T10:07:07.863Z,10.80
2023-03-05T10:09:49.244Z,10.60
2023-03-05T10:12:43.493Z,10.80
2023-03-05T10:15:20.776Z,10.80
2023-03-05T10:18:03.393Z,9.60
2023-03-05T10:20:44.600Z,9.40
2023-03-05T10:23:46.994Z,10.20
2023-03-05T10:26:41.802Z,10.80
2023-03-05T10:29:58.924Z,11.10
2023-03-05T10:32:43.674Z,14.10
2023-03-05T10:35:34.404Z,12.30
2023-03-05T10:38:50.796Z,13.10
2023-03-05T10:41:45.339Z,13.40
2023-03-05T10:44:36.860Z,13.90
2023-03-05T10:47:35.420Z,10.50
2023-03-05T10:50:03.092Z,13.70
2023-03-05T10:52:37.945Z,11.30
2023-03-05T10:55:18.690Z,10.60
2023-03-05T10:57:47.472Z,10.20
2023-03-05T11:00:22.528Z,9.70
2023-03-05T11:03:01.285Z,10.60
2023-03-05T11:05:52.242Z,9.80
2023-03-05T11:08:19.597Z,10.10
2023-03-05T11:10:47.032Z,9.30
2023-03-05T11:13:28.431Z,8.60
2023-03-05T11:16:01.849Z,8.60
2023-03-05T11:18:37.657Z,8.40
2023-03-05T11:21:12.825Z,10.60
2023-03-05T11:23:40.263Z,9.20
2023-03-05T11:26:13.651Z,9.20
2023-03-05T11:28:58.464Z,9.70
2023-03-05T11:31:33.562Z,8.90
2023-03-05T11:34:25.487Z,11.00
2023-03-05T11:36:53.215Z,8.90
2023-03-05T11:39:23.684Z,8.30
2023-03-05T11:41:59.797Z,7.50
2023-03-05T11:44:55.921Z,8.50
2023-03-05T11:47:31.731Z,7.70
2023-03-05T11:50:24.921Z,8.80
2023-03-05T11:52:58.092Z,9.20
2023-03-05T11:55:46.946Z,8.60
2023-03-05T11:58:38.071Z,7.60
2023-03-05T12:01:27.518Z,8.00
2023-03-05T12:03:55.860Z,8.20
2023-03-05T12:06:37.203Z,11.40
2023-03-05T12:09:26.097Z,7.50
2023-03-05T12:12:12.957Z,10.20
2023-03-05T12:15:00.762Z,7.70
2023-03-05T12:17:46.259Z,7.10
2023-03-05T12:20:41.919Z,9.40
2023-03-05T12:23:16.542Z,9.20
2023-03-05T12:25:57.862Z,10.50
2023-03-05T12:28:34.110Z,7.30
2023-03-05T12:31:29.483Z,9.40
2023-03-05T12:33:57.009Z,8.60
2023-03-05T12:36:24.285Z,7.10
2023-03-05T12:38:56.986Z,9.10
2023-03-05T12:41:25.423Z,7.90
2023-03-05T12:44:05.534Z,9.90
2023-03-05T12:46:43.221Z,10.10
2023-03-05T12:49:28.407Z,9.20
2023-03-05T12:52:00.825Z,12.80
2023-03-05T12:54:35.994Z,9.50
2023-03-05T12:57:16.029Z,10.40
2023-03-05T12:59:54.997Z,10.50
2023-03-05T13:02:31.313Z,10.60
2023-03-05T13:05:05.911Z,11.10
2023-03-05T13:07:33.343Z,8.70
2023-03-05T13:10:00.825Z,10.50
2023-03-05T13:12:30.613Z,10.90
2023-03-05T13:15:14.200Z,9.30
2023-03-05T13:17:53.035Z,10.10
2023-03-05T13:20:39.989Z,9.30
2023-03-05T13:23:26.916Z,9.80
2023-03-05T13:26:15.104Z,8.30
2023-03-05T13:28:44.950Z,9.00
2023-03-05T13:31:22.536Z,7.90
2023-03-05T13:33:56.872Z,7.80
2023-03-05T13:36:26.630Z,8.70
2023-03-05T13:38:54.644Z,9.70
2023-03-05T13:41:27.582Z,10.40
2023-03-05T13:44:01.894Z,9.10
2023-03-05T13:46:39.240Z,9.40
2023-03-05T13:49:26.043Z,8.30
2023-03-05T13:51:56.987Z,7.50
2023-03-05T13:54:26.478Z,7.20
2023-03-05T13:57:07.664Z,7.20
2023-03-05T13:59:39.188Z,7.70
2023-03-05T14:02:21.190Z,7.00
2023-03-05T14:04:48.691Z,6.60
2023-03-05T14:07:30.915Z,7.40
2023-03-05T14:09:59.908Z,8.40
2023-03-05T14:12:43.535Z,8.40
2023-03-05T14:15:37.161Z,5.90
2023-03-05T14:18:22.668Z,7.50
2023-03-05T14:21:11.373Z,6.10
2023-03-05T14:23:45.836Z,7.90
2023-03-05T14:26:35.190Z,7.70
2023-03-05T14:29:11.678Z,7.40
2023-03-05T14:31:51.836Z,7.80
2023-03-05T14:34:26.299Z,9.80
2023-03-05T14:36:57.512Z,7.30
2023-03-05T14:39:53.703Z,7.90
2023-03-05T14:42:29.484Z,7.60
2023-03-05T14:45:01.413Z,9.70
2023-03-05T14:47:29.116Z,7.90
2023-03-05T14:49:56.582Z,9.20
2023-03-05T14:52:25.104Z,9.60
2023-03-05T14:54:54.047Z,8.60
2023-03-05T14:57:25.903Z,9.40
2023-03-05T14:59:54.289Z,9.20
2023-03-05T15:02:25.564Z,9.30
2023-03-05T15:04:53.281Z,11.90
2023-03-05T15:07:31.214Z,9.00
2023-03-05T15:10:00.137Z,10.00
2023-03-05T15:12:27.802Z,8.10
2023-03-05T15:14:56.635Z,7.90
2023-03-05T15:17:34.018Z,7.70
2023-03-05T15:20:01.955Z,8.20
2023-03-05T15:22:29.266Z,7.60
2023-03-05T15:24:56.784Z,7.30
2023-03-05T15:27:24.252Z,9.00
2023-03-05T15:29:51.713Z,8.60
2023-03-05T15:32:19.360Z,6.90
2023-03-05T15:34:47.037Z,8.90
2023-03-05T15:37:14.371Z,8.90
2023-03-05T15:39:42.503Z,9.30
2023-03-05T15:42:09.888Z,8.20
2023-03-05T15:44:39.325Z,11.00
2023-03-05T15:47:07.114Z,8.90
2023-03-05T15:49:34.642Z,9.20
2023-03-05T15:52:02.014Z,9.20
2023-03-05T15:54:29.820Z,10.20
2023-03-05T15:56:57.149Z,9.20
2023-03-05T15:59:25.194Z,8.20
2023-03-05T16:01:52.629Z,10.30
2023-03-05T16:04:20.144Z,9.70
2023-03-05T16:06:49.567Z,9.10
2023-03-05T16:09:19.725Z,8.00
2023-03-05T16:11:49.252Z,8.90
2023-03-05T16:14:22.473Z,8.70
2023-03-05T16:16:51.443Z,10.50
2023-03-05T16:19:19.973Z,8.50
2023-03-05T16:21:47.389Z,9.90
2023-03-05T16:24:14.799Z,9.10
2023-03-05T16:26:42.831Z,10.00
2023-03-05T16:29:11.683Z,8.40
2023-03-05T16:31:40.637Z,9.10
2023-03-05T16:34:09.476Z,11.80
2023-03-05T16:36:37.039Z,9.90
2023-03-05T16:39:05.271Z,8.30
2023-03-05T16:41:33.404Z,8.10
2023-03-05T16:44:00.991Z,7.80
2023-03-05T16:46:30.135Z,7.50
2023-03-05T16:48:58.762Z,11.10
2023-03-05T16:51:26.902Z,10.40
2023-03-05T16:53:55.714Z,9.60
2023-03-05T16:56:23.997Z,9.30
2023-03-05T16:58:53.395Z,17.30
2023-03-05T17:01:21.838Z,19.40
2023-03-05T17:03:50.241Z,12.80
2023-03-05T17:06:24.938Z,10.40
2023-03-05T17:08:54.227Z,10.10
2023-03-05T17:11:21.812Z,12.00
2023-03-05T17:13:49.400Z,9.30
2023-03-05T17:16:19.049Z,11.00
2023-03-05T17:18:47.170Z,9.90
2023-03-05T17:21:15.507Z,10.60
2023-03-05T17:23:42.883Z,12.90
2023-03-05T17:26:14.052Z,10.90
2023-03-05T17:28:42.207Z,11.70
2023-03-05T17:31:09.811Z,14.40
2023-03-05T17:33:37.911Z,12.50
2023-03-05T17:36:06.511Z,12.20
2023-03-05T17:38:33.968Z,14.00
2023-03-05T17:41:01.430Z,11.50
2023-03-05T17:43:28.966Z,12.30
2023-03-05T17:45:59.756Z,15.50
2023-03-05T17:48:28.462Z,14.90
2023-03-05T17:50:58.340Z,12.30
2023-03-05T17:53:26.431Z,12.00
2023-03-05T17:55:53.874Z,14.20
2023-03-05T17:58:21.243Z,11.80
2023-03-05T18:00:48.695Z,11.40
2023-03-05T18:03:16.142Z,12.30
2023-03-05T18:05:44.367Z,12.40
2023-03-05T18:08:11.774Z,13.30
2023-03-05T18:10:39.211Z,15.20
2023-03-05T18:13:06.619Z,17.10
2023-03-05T18:15:33.979Z,13.30
2023-03-05T18:18:01.420Z,14.40
2023-03-05T18:20:36.550Z,13.10
2023-03-05T18:23:05.796Z,22.70
2023-03-05T18:25:33.845Z,17.50
2023-03-05T18:28:04.691Z,21.60
2023-03-05T18:30:32.574Z,25.70
2023-03-05T18:33:00.385Z,33.40
2023-03-05T18:35:29.292Z,28.80
2023-03-05T18:37:57.745Z,26.00
2023-03-05T18:40:28.039Z,23.90
2023-03-05T18:42:55.695Z,19.60
2023-03-05T18:45:23.670Z,14.00
2023-03-05T18:47:54.162Z,14.60
2023-03-05T18:50:24.897Z,11.70
2023-03-05T18:52:52.760Z,9.90
2023-03-05T18:55:24.781Z,12.50
2023-03-05T18:57:52.627Z,15.60
2023-03-05T19:00:27.316Z,11.10
2023-03-05T19:02:56.060Z,10.90
2023-03-05T19:05:26.295Z,11.20
2023-03-05T19:07:54.367Z,10.30
2023-03-05T19:10:22.758Z,11.80
2023-03-05T19:12:57.715Z,10.60
2023-03-05T19:15:25.121Z,9.90
2023-03-05T19:17:52.569Z,9.20
2023-03-05T19:20:20.245Z,11.10
2023-03-05T19:22:50.760Z,12.40
2023-03-05T19:25:18.755Z,9.50
2023-03-05T19:27:46.232Z,10.20
2023-03-05T19:30:15.934Z,11.40
2023-03-05T19:32:43.545Z,9.70
2023-03-05T19:35:16.412Z,10.60
2023-03-05T19:37:46.008Z,9.30
2023-03-05T19:40:14.562Z,10.10
2023-03-05T19:42:42.084Z,9.00
2023-03-05T19:45:10.159Z,10.10
2023-03-05T19:47:37.776Z,9.30
2023-03-05T19:50:06.134Z,10.90
2023-03-05T19:52:33.591Z,9.90
2023-03-05T19:55:00.983Z,12.10
2023-03-05T19:57:28.402Z,10.10
2023-03-05T19:59:55.880Z,11.90
2023-03-05T20:02:23.955Z,10.00
2023-03-05T20:04:51.537Z,12.40
2023-03-05T20:07:19.029Z,11.90
2023-03-05T20:09:46.469Z,13.70
2023-03-05T20:12:14.028Z,12.10
2023-03-05T20:14:41.507Z,15.20
2023-03-05T20:17:08.915Z,12.80
2023-03-05T20:19:36.454Z,13.80
2023-03-05T20:22:03.927Z,12.70
2023-03-05T20:24:31.402Z,14.50
2023-03-05T20:27:00.100Z,13.90
2023-03-05T20:29:27.489Z,12.20
2023-03-05T20:31:56.850Z,12.60
2023-03-05T20:34:24.296Z,11.80
2023-03-05T20:36:51.658Z,12.80
2023-03-05T20:39:19.180Z,14.80
2023-03-05T20:41:47.052Z,12.40
2023-03-05T20:44:14.750Z,13.40
2023-03-05T20:46:51.888Z,15.10
2023-03-05T20:49:19.855Z,16.30
2023-03-05T20:51:50.074Z,15.20
2023-03-05T20:54:17.599Z,15.80
2023-03-05T20:56:44.978Z,16.70
2023-03-05T20:59:12.586Z,15.40
2023-03-05T21:01:40.732Z,16.10
2023-03-05T21:04:08.538Z,16.60
2023-03-05T21:06:37.113Z,14.80
2023-03-05T21:09:05.088Z,14.10
2023-03-05T21:11:32.532Z,13.00
2023-03-05T21:13:59.976Z,12.10
2023-03-05T21:16:28.177Z,14.70
2023-03-05T21:18:57.237Z,15.30
2023-03-05T21:21:25.680Z,12.90
2023-03-05T21:23:53.592Z,14.40
2023-03-05T21:26:21.665Z,14.00
2023-03-05T21:28:49.134Z,13.60
2023-03-05T21:31:22.164Z,14.30
2023-03-05T21:33:49.742Z,13.80
2023-03-05T21:36:19.140Z,14.40
2023-03-05T21:38:48.071Z,13.50
2023-03-05T21:41:15.912Z,14.30
2023-03-05T21:43:43.349Z,14.60
2023-03-05T21:46:11.250Z,14.60
2023-03-05T21:48:38.848Z,15.30
2023-03-05T21:51:08.711Z,16.60
2023-03-05T21:53:36.342Z,15.10
2023-03-05T21:56:23.410Z,14.70
2023-03-05T21:58:52.512Z,13.60
2023-03-05T22:01:21.308Z,12.60
2023-03-05T22:03:49.547Z,12.20
2023-03-05T22:06:19.103Z,13.20
2023-03-05T22:08:47.366Z,14.20
2023-03-05T22:11:17.751Z,13.30
2023-03-05T22:13:45.352Z,14.60
2023-03-05T22:16:22.416Z,14.20
2023-03-05T22:18:59.502Z,15.40
2023-03-05T22:21:29.074Z,13.30
2023-03-05T22:23:58.161Z,11.80
2023-03-05T22:26:34.401Z,13.90
2023-03-05T22:29:03.416Z,13.60
2023-03-05T22:31:30.970Z,13.00
2023-03-05T22:33:58.439Z,14.60
2023-03-05T22:36:26.007Z,12.30
2023-03-05T22:38:53.425Z,15.30
2023-03-05T22:41:22.114Z,12.70
2023-03-05T22:43:50.723Z,14.90
2023-03-05T22:46:23.081Z,16.00
2023-03-05T22:48:51.585Z,13.60
2023-03-05T22:51:20.322Z,14.60
2023-03-05T22:53:47.957Z,16.00
2023-03-05T22:56:18.706Z,17.00
2023-03-05T22:58:46.426Z,18.00
2023-03-05T23:01:20.968Z,18.30
2023-03-05T23:03:53.329Z,19.90
2023-03-05T23:06:20.762Z,18.90
2023-03-05T23:08:48.100Z,19.20
2023-03-05T23:11:15.567Z,18.90
2023-03-05T23:13:42.880Z,22.30
2023-03-05T23:16:10.243Z,20.50
2023-03-05T23:18:37.749Z,19.90
2023-03-05T23:21:05.627Z,20.20
2023-03-05T23:23:33.323Z,19.30
2023-03-05T23:26:01.189Z,23.00
2023-03-05T23:28:28.645Z,19.10
2023-03-05T23:30:58.183Z,18.20
2023-03-05T23:33:25.880Z,19.10
2023-03-05T23:35:57.326Z,18.10
2023-03-05T23:40:59.659Z,21.00
2023-03-05T23:43:29.270Z,21.10
2023-03-05T23:45:57.338Z,20.80
2023-03-05T23:48:26.851Z,19.20
2023-03-05T23:50:55.139Z,22.20
2023-03-05T23:53:29.144Z,21.10
2023-03-05T23:55:56.787Z,21.40
2023-03-05T23:58:24.547Z,25.40
